sensor_id;sensor_type;location;lat;lon;timestamp;temperature;humidity
30336;DHT22;17142;47.990;7.846;2023-12-22T00:02:18;8.30;99.90
30336;DHT22;17142;47.990;7.846;2023-12-22T00:04:44;8.30;99.90
30336;DHT22;17142;47.990;7.846;2023-12-22T00:07:09;8.30;99.90
30336;DHT22;17142;47.990;7.846;2023-12-22T00:09:37;8.30;99.90
30336;DHT22;17142;47.990;7.846;2023-12-22T00:12:03;8.30;99.90
30336;DHT22;17142;47.990;7.846;2023-12-22T00:14:31;8.30;99.90
30336;DHT22;17142;47.990;7.846;2023-12-22T00:16:59;8.30;99.90
30336;DHT22;17142;47.990;7.846;2023-12-22T00:19:25;8.30;99.90
30336;DHT22;17142;47.990;7.846;2023-12-22T00:21:51;8.30;99.90
30336;DHT22;17142;47.990;7.846;2023-12-22T00:24:19;8.30;99.90
30336;DHT22;17142;47.990;7.846;2023-12-22T00:26:46;8.30;99.90
30336;DHT22;17142;47.990;7.846;2023-12-22T00:29:12;8.40;99.90
30336;DHT22;17142;47.990;7.846;2023-12-22T00:31:38;8.40;99.90
30336;DHT22;17142;47.990;7.846;2023-12-22T00:34:03;8.40;99.90
30336;DHT22;17142;47.990;7.846;2023-12-22T00:36:29;8.40;99.90
30336;DHT22;17142;47.990;7.846;2023-12-22T00:38:55;8.50;99.90
30336;DHT22;17142;47.990;7.846;2023-12-22T00:41:20;8.50;99.90
30336;DHT22;17142;47.990;7.846;2023-12-22T00:43:46;8.50;99.90
30336;DHT22;17142;47.990;7.846;2023-12-22T00:46:14;8.50;99.90
30336;DHT22;17142;47.990;7.846;2023-12-22T00:48:39;8.40;99.90
30336;DHT22;17142;47.990;7.846;2023-12-22T00:51:08;8.40;99.90
30336;DHT22;17142;47.990;7.846;2023-12-22T00:53:36;8.30;99.90
30336;DHT22;17142;47.990;7.846;2023-12-22T00:56:04;8.30;99.90
30336;DHT22;17142;47.990;7.846;2023-12-22T00:58:30;8.40;99.90
30336;DHT22;17142;47.990;7.846;2023-12-22T01:00:56;8.40;99.90
30336;DHT22;17142;47.990;7.846;2023-12-22T01:03:24;8.30;99.90
30336;DHT22;17142;47.990;7.846;2023-12-22T01:05:50;8.20;99.90
30336;DHT22;17142;47.990;7.846;2023-12-22T01:08:15;8.10;99.90
30336;DHT22;17142;47.990;7.846;2023-12-22T01:10:41;8.00;99.90
30336;DHT22;17142;47.990;7.846;2023-12-22T01:13:09;8.00;99.90
30336;DHT22;17142;47.990;7.846;2023-12-22T01:15:37;7.80;99.90
30336;DHT22;17142;47.990;7.846;2023-12-22T01:18:03;7.70;99.90
30336;DHT22;17142;47.990;7.846;2023-12-22T01:20:29;7.70;99.90
30336;DHT22;17142;47.990;7.846;2023-12-22T01:22:59;7.60;99.90
30336;DHT22;17142;47.990;7.846;2023-12-22T01:25:27;7.90;99.90
30336;DHT22;17142;47.990;7.846;2023-12-22T01:27:52;7.80;99.90
30336;DHT22;17142;47.990;7.846;2023-12-22T01:30:18;7.90;99.90
30336;DHT22;17142;47.990;7.846;2023-12-22T01:32:44;8.00;99.90
30336;DHT22;17142;47.990;7.846;2023-12-22T01:35:10;8.00;99.90
30336;DHT22;17142;47.990;7.846;2023-12-22T01:37:36;8.20;99.90
30336;DHT22;17142;47.990;7.846;2023-12-22T01:40:03;8.20;99.90
30336;DHT22;17142;47.990;7.846;2023-12-22T01:42:31;8.20;99.90
30336;DHT22;17142;47.990;7.846;2023-12-22T01:44:57;8.20;99.90
30336;DHT22;17142;47.990;7.846;2023-12-22T01:47:22;8.20;99.90
30336;DHT22;17142;47.990;7.846;2023-12-22T01:49:48;8.20;99.90
30336;DHT22;17142;47.990;7.846;2023-12-22T01:52:17;8.10;99.90
30336;DHT22;17142;47.990;7.846;2023-12-22T01:54:46;8.20;99.90
30336;DHT22;17142;47.990;7.846;2023-12-22T01:57:13;8.50;99.90
30336;DHT22;17142;47.990;7.846;2023-12-22T01:59:45;8.30;99.90
30336;DHT22;17142;47.990;7.846;2023-12-22T02:02:11;8.20;99.90
30336;DHT22;17142;47.990;7.846;2023-12-22T02:04:37;8.00;99.90
30336;DHT22;17142;47.990;7.846;2023-12-22T02:07:06;8.00;99.90
30336;DHT22;17142;47.990;7.846;2023-12-22T02:09:34;7.90;99.90
30336;DHT22;17142;47.990;7.846;2023-12-22T02:12:02;7.90;99.90
30336;DHT22;17142;47.990;7.846;2023-12-22T02:14:28;7.80;99.90
30336;DHT22;17142;47.990;7.846;2023-12-22T02:19:45;7.80;99.90
30336;DHT22;17142;47.990;7.846;2023-12-22T02:22:12;7.90;99.90
30336;DHT22;17142;47.990;7.846;2023-12-22T02:24:41;8.00;99.90
30336;DHT22;17142;47.990;7.846;2023-12-22T02:27:38;8.10;99.90
30336;DHT22;17142;47.990;7.846;2023-12-22T02:30:34;8.20;99.90
30336;DHT22;17142;47.990;7.846;2023-12-22T02:33:00;8.10;99.90
30336;DHT22;17142;47.990;7.846;2023-12-22T02:35:28;8.10;99.90
30336;DHT22;17142;47.990;7.846;2023-12-22T02:37:56;8.00;99.90
30336;DHT22;17142;47.990;7.846;2023-12-22T02:40:23;7.90;99.90
30336;DHT22;17142;47.990;7.846;2023-12-22T02:42:52;7.80;99.90
30336;DHT22;17142;47.990;7.846;2023-12-22T02:45:18;7.80;99.90
30336;DHT22;17142;47.990;7.846;2023-12-22T02:47:47;7.70;99.90
30336;DHT22;17142;47.990;7.846;2023-12-22T02:50:16;7.60;99.90
30336;DHT22;17142;47.990;7.846;2023-12-22T02:52:42;7.50;99.90
30336;DHT22;17142;47.990;7.846;2023-12-22T02:55:08;7.50;99.90
30336;DHT22;17142;47.990;7.846;2023-12-22T02:57:34;7.50;99.90
30336;DHT22;17142;47.990;7.846;2023-12-22T03:00:00;7.40;99.90
30336;DHT22;17142;47.990;7.846;2023-12-22T03:02:28;7.30;99.90
30336;DHT22;17142;47.990;7.846;2023-12-22T03:04:56;7.40;99.90
30336;DHT22;17142;47.990;7.846;2023-12-22T03:07:21;7.40;99.90
30336;DHT22;17142;47.990;7.846;2023-12-22T03:09:47;7.40;99.90
30336;DHT22;17142;47.990;7.846;2023-12-22T03:12:12;7.40;99.90
30336;DHT22;17142;47.990;7.846;2023-12-22T03:14:38;7.40;99.90
30336;DHT22;17142;47.990;7.846;2023-12-22T03:17:06;7.40;99.90
30336;DHT22;17142;47.990;7.846;2023-12-22T03:19:33;7.40;99.90
30336;DHT22;17142;47.990;7.846;2023-12-22T03:21:59;7.40;99.90
30336;DHT22;17142;47.990;7.846;2023-12-22T03:24:25;7.50;99.90
30336;DHT22;17142;47.990;7.846;2023-12-22T03:26:54;7.60;99.90
30336;DHT22;17142;47.990;7.846;2023-12-22T03:29:22;7.70;99.90
30336;DHT22;17142;47.990;7.846;2023-12-22T03:31:50;7.70;99.90
30336;DHT22;17142;47.990;7.846;2023-12-22T03:34:20;7.60;99.90
30336;DHT22;17142;47.990;7.846;2023-12-22T03:36:46;7.50;99.90
30336;DHT22;17142;47.990;7.846;2023-12-22T03:39:17;7.50;99.90
30336;DHT22;17142;47.990;7.846;2023-12-22T03:41:45;7.60;99.90
30336;DHT22;17142;47.990;7.846;2023-12-22T03:44:13;7.60;99.90
30336;DHT22;17142;47.990;7.846;2023-12-22T03:46:39;7.60;99.90
30336;DHT22;17142;47.990;7.846;2023-12-22T03:49:04;7.50;99.90
30336;DHT22;17142;47.990;7.846;2023-12-22T03:51:30;7.50;99.90
30336;DHT22;17142;47.990;7.846;2023-12-22T03:53:56;7.50;99.90
30336;DHT22;17142;47.990;7.846;2023-12-22T03:56:23;7.50;99.90
30336;DHT22;17142;47.990;7.846;2023-12-22T03:58:49;7.50;99.90
30336;DHT22;17142;47.990;7.846;2023-12-22T04:01:15;7.50;99.90
30336;DHT22;17142;47.990;7.846;2023-12-22T04:03:40;7.50;99.90
30336;DHT22;17142;47.990;7.846;2023-12-22T04:06:06;7.50;99.90
30336;DHT22;17142;47.990;7.846;2023-12-22T04:08:34;7.50;99.90
30336;DHT22;17142;47.990;7.846;2023-12-22T04:11:01;7.40;99.90
30336;DHT22;17142;47.990;7.846;2023-12-22T04:13:27;7.40;99.90
30336;DHT22;17142;47.990;7.846;2023-12-22T04:15:53;7.50;99.90
30336;DHT22;17142;47.990;7.846;2023-12-22T04:18:19;7.50;99.90
30336;DHT22;17142;47.990;7.846;2023-12-22T04:20:44;7.40;99.90
30336;DHT22;17142;47.990;7.846;2023-12-22T04:23:10;7.30;99.90
30336;DHT22;17142;47.990;7.846;2023-12-22T04:25:35;7.40;99.90
30336;DHT22;17142;47.990;7.846;2023-12-22T04:28:01;7.30;99.90
30336;DHT22;17142;47.990;7.846;2023-12-22T04:30:27;7.30;99.90
30336;DHT22;17142;47.990;7.846;2023-12-22T04:32:55;7.40;99.90
30336;DHT22;17142;47.990;7.846;2023-12-22T04:35:21;7.30;99.90
30336;DHT22;17142;47.990;7.846;2023-12-22T04:37:47;7.20;99.90
30336;DHT22;17142;47.990;7.846;2023-12-22T04:40:17;7.30;99.90
30336;DHT22;17142;47.990;7.846;2023-12-22T04:42:42;7.30;99.90
30336;DHT22;17142;47.990;7.846;2023-12-22T04:45:10;7.30;99.90
30336;DHT22;17142;47.990;7.846;2023-12-22T04:47:38;7.30;99.90
30336;DHT22;17142;47.990;7.846;2023-12-22T04:50:07;7.30;99.90
30336;DHT22;17142;47.990;7.846;2023-12-22T04:52:32;7.30;99.90
30336;DHT22;17142;47.990;7.846;2023-12-22T04:55:00;7.20;99.90
30336;DHT22;17142;47.990;7.846;2023-12-22T04:57:26;7.20;99.90
30336;DHT22;17142;47.990;7.846;2023-12-22T04:59:51;7.20;99.90
30336;DHT22;17142;47.990;7.846;2023-12-22T05:02:17;7.30;99.90
30336;DHT22;17142;47.990;7.846;2023-12-22T05:04:42;7.30;99.90
30336;DHT22;17142;47.990;7.846;2023-12-22T05:07:10;7.30;99.90
30336;DHT22;17142;47.990;7.846;2023-12-22T05:09:36;7.30;99.90
30336;DHT22;17142;47.990;7.846;2023-12-22T05:12:02;7.30;99.90
30336;DHT22;17142;47.990;7.846;2023-12-22T05:14:28;7.30;99.90
30336;DHT22;17142;47.990;7.846;2023-12-22T05:16:53;7.30;99.90
30336;DHT22;17142;47.990;7.846;2023-12-22T05:19:23;7.30;99.90
30336;DHT22;17142;47.990;7.846;2023-12-22T05:21:53;7.20;99.90
30336;DHT22;17142;47.990;7.846;2023-12-22T05:24:21;7.20;99.90
30336;DHT22;17142;47.990;7.846;2023-12-22T05:26:47;7.20;99.90
30336;DHT22;17142;47.990;7.846;2023-12-22T05:29:15;7.20;99.90
30336;DHT22;17142;47.990;7.846;2023-12-22T05:31:41;7.20;99.90
30336;DHT22;17142;47.990;7.846;2023-12-22T05:34:09;7.30;99.90
30336;DHT22;17142;47.990;7.846;2023-12-22T05:36:35;7.30;99.90
30336;DHT22;17142;47.990;7.846;2023-12-22T05:39:01;7.30;99.90
30336;DHT22;17142;47.990;7.846;2023-12-22T05:41:29;7.30;99.90
30336;DHT22;17142;47.990;7.846;2023-12-22T05:43:54;7.30;99.90
30336;DHT22;17142;47.990;7.846;2023-12-22T05:46:20;7.20;99.90
30336;DHT22;17142;47.990;7.846;2023-12-22T05:48:46;7.20;99.90
30336;DHT22;17142;47.990;7.846;2023-12-22T05:51:14;7.20;99.90
30336;DHT22;17142;47.990;7.846;2023-12-22T05:53:40;7.30;99.90
30336;DHT22;17142;47.990;7.846;2023-12-22T05:56:17;7.20;99.90
30336;DHT22;17142;47.990;7.846;2023-12-22T05:58:43;7.20;99.90
30336;DHT22;17142;47.990;7.846;2023-12-22T06:01:16;7.20;99.90
30336;DHT22;17142;47.990;7.846;2023-12-22T06:03:44;7.20;99.90
30336;DHT22;17142;47.990;7.846;2023-12-22T06:06:09;7.20;99.90
30336;DHT22;17142;47.990;7.846;2023-12-22T06:08:38;7.30;99.90
30336;DHT22;17142;47.990;7.846;2023-12-22T06:11:06;7.30;99.90
30336;DHT22;17142;47.990;7.846;2023-12-22T06:13:34;7.30;99.90
30336;DHT22;17142;47.990;7.846;2023-12-22T06:16:00;7.30;99.90
30336;DHT22;17142;47.990;7.846;2023-12-22T06:18:26;7.30;99.90
30336;DHT22;17142;47.990;7.846;2023-12-22T06:20:52;7.30;99.90
30336;DHT22;17142;47.990;7.846;2023-12-22T06:23:20;7.30;99.90
30336;DHT22;17142;47.990;7.846;2023-12-22T06:25:48;7.30;99.90
30336;DHT22;17142;47.990;7.846;2023-12-22T06:28:13;7.30;99.90
30336;DHT22;17142;47.990;7.846;2023-12-22T06:30:42;7.30;99.90
30336;DHT22;17142;47.990;7.846;2023-12-22T06:33:08;7.20;99.90
30336;DHT22;17142;47.990;7.846;2023-12-22T06:35:34;7.20;99.90
30336;DHT22;17142;47.990;7.846;2023-12-22T06:38:02;7.20;99.90
30336;DHT22;17142;47.990;7.846;2023-12-22T06:40:29;7.20;99.90
30336;DHT22;17142;47.990;7.846;2023-12-22T06:42:54;7.20;99.90
30336;DHT22;17142;47.990;7.846;2023-12-22T06:45:22;7.20;99.90
30336;DHT22;17142;47.990;7.846;2023-12-22T06:47:48;7.20;99.90
30336;DHT22;17142;47.990;7.846;2023-12-22T06:50:13;7.30;99.90
30336;DHT22;17142;47.990;7.846;2023-12-22T06:52:39;7.40;99.90
30336;DHT22;17142;47.990;7.846;2023-12-22T06:55:05;7.30;99.90
30336;DHT22;17142;47.990;7.846;2023-12-22T06:57:33;7.40;99.90
30336;DHT22;17142;47.990;7.846;2023-12-22T07:00:01;7.40;99.90
30336;DHT22;17142;47.990;7.846;2023-12-22T07:02:27;7.40;99.90
30336;DHT22;17142;47.990;7.846;2023-12-22T07:05:48;7.40;99.90
30336;DHT22;17142;47.990;7.846;2023-12-22T07:07:51;7.40;99.90
30336;DHT22;17142;47.990;7.846;2023-12-22T07:10:16;7.40;99.90
30336;DHT22;17142;47.990;7.846;2023-12-22T07:12:42;7.40;99.90
30336;DHT22;17142;47.990;7.846;2023-12-22T07:15:14;7.40;99.90
30336;DHT22;17142;47.990;7.846;2023-12-22T07:17:40;7.40;99.90
30336;DHT22;17142;47.990;7.846;2023-12-22T07:20:06;7.40;99.90
30336;DHT22;17142;47.990;7.846;2023-12-22T07:22:34;7.50;99.90
30336;DHT22;17142;47.990;7.846;2023-12-22T07:25:02;7.40;99.90
30336;DHT22;17142;47.990;7.846;2023-12-22T07:27:28;7.40;99.90
30336;DHT22;17142;47.990;7.846;2023-12-22T07:29:54;7.40;99.90
30336;DHT22;17142;47.990;7.846;2023-12-22T07:32:19;7.40;99.90
30336;DHT22;17142;47.990;7.846;2023-12-22T07:34:45;7.40;99.90
30336;DHT22;17142;47.990;7.846;2023-12-22T07:37:11;7.40;99.90
30336;DHT22;17142;47.990;7.846;2023-12-22T07:39:36;7.50;99.90
30336;DHT22;17142;47.990;7.846;2023-12-22T07:42:04;7.40;99.90
30336;DHT22;17142;47.990;7.846;2023-12-22T07:44:30;7.40;99.90
30336;DHT22;17142;47.990;7.846;2023-12-22T07:46:57;7.40;99.90
30336;DHT22;17142;47.990;7.846;2023-12-22T07:49:24;7.30;99.90
30336;DHT22;17142;47.990;7.846;2023-12-22T07:51:51;7.30;99.90
30336;DHT22;17142;47.990;7.846;2023-12-22T07:54:22;7.30;99.90
30336;DHT22;17142;47.990;7.846;2023-12-22T07:56:47;7.30;99.90
30336;DHT22;17142;47.990;7.846;2023-12-22T07:59:13;7.30;99.90
30336;DHT22;17142;47.990;7.846;2023-12-22T08:01:40;7.40;99.90
30336;DHT22;17142;47.990;7.846;2023-12-22T08:04:05;7.40;99.90
30336;DHT22;17142;47.990;7.846;2023-12-22T08:06:31;7.40;99.90
30336;DHT22;17142;47.990;7.846;2023-12-22T08:08:56;7.40;99.90
30336;DHT22;17142;47.990;7.846;2023-12-22T08:11:22;7.40;99.90
30336;DHT22;17142;47.990;7.846;2023-12-22T08:13:52;7.40;99.90
30336;DHT22;17142;47.990;7.846;2023-12-22T08:16:19;7.60;99.90
30336;DHT22;17142;47.990;7.846;2023-12-22T08:18:44;7.60;99.90
30336;DHT22;17142;47.990;7.846;2023-12-22T08:21:10;7.60;99.90
30336;DHT22;17142;47.990;7.846;2023-12-22T08:23:35;7.60;99.90
30336;DHT22;17142;47.990;7.846;2023-12-22T08:26:01;7.60;99.90
30336;DHT22;17142;47.990;7.846;2023-12-22T08:28:27;7.60;99.90
30336;DHT22;17142;47.990;7.846;2023-12-22T08:30:54;7.60;99.90
30336;DHT22;17142;47.990;7.846;2023-12-22T08:33:20;7.60;99.90
30336;DHT22;17142;47.990;7.846;2023-12-22T08:35:46;7.70;99.90
30336;DHT22;17142;47.990;7.846;2023-12-22T08:38:11;7.70;99.90
30336;DHT22;17142;47.990;7.846;2023-12-22T08:40:40;7.70;99.90
30336;DHT22;17142;47.990;7.846;2023-12-22T08:43:06;7.70;99.90
30336;DHT22;17142;47.990;7.846;2023-12-22T08:45:32;7.70;99.90
30336;DHT22;17142;47.990;7.846;2023-12-22T08:47:57;7.70;99.90
30336;DHT22;17142;47.990;7.846;2023-12-22T08:50:23;7.80;99.90
30336;DHT22;17142;47.990;7.846;2023-12-22T08:52:50;7.70;99.90
30336;DHT22;17142;47.990;7.846;2023-12-22T08:55:16;7.70;99.90
30336;DHT22;17142;47.990;7.846;2023-12-22T08:57:42;7.70;99.90
30336;DHT22;17142;47.990;7.846;2023-12-22T09:00:10;7.60;99.90
30336;DHT22;17142;47.990;7.846;2023-12-22T09:02:36;7.60;99.90
30336;DHT22;17142;47.990;7.846;2023-12-22T09:05:01;7.60;99.90
30336;DHT22;17142;47.990;7.846;2023-12-22T09:07:31;7.60;99.90
30336;DHT22;17142;47.990;7.846;2023-12-22T09:09:56;7.60;99.90
30336;DHT22;17142;47.990;7.846;2023-12-22T09:12:22;7.60;99.90
30336;DHT22;17142;47.990;7.846;2023-12-22T09:14:50;7.60;99.90
30336;DHT22;17142;47.990;7.846;2023-12-22T09:17:15;7.60;99.90
30336;DHT22;17142;47.990;7.846;2023-12-22T09:19:41;7.60;99.90
30336;DHT22;17142;47.990;7.846;2023-12-22T09:22:09;7.60;99.90
30336;DHT22;17142;47.990;7.846;2023-12-22T09:24:37;7.70;99.90
30336;DHT22;17142;47.990;7.846;2023-12-22T09:27:04;7.70;99.90
30336;DHT22;17142;47.990;7.846;2023-12-22T09:29:33;7.70;99.90
30336;DHT22;17142;47.990;7.846;2023-12-22T09:31:59;7.80;99.90
30336;DHT22;17142;47.990;7.846;2023-12-22T09:34:26;7.80;99.90
30336;DHT22;17142;47.990;7.846;2023-12-22T09:36:52;7.80;99.90
30336;DHT22;17142;47.990;7.846;2023-12-22T09:39:18;7.80;99.90
30336;DHT22;17142;47.990;7.846;2023-12-22T09:41:50;7.80;99.90
30336;DHT22;17142;47.990;7.846;2023-12-22T09:44:20;7.80;99.90
30336;DHT22;17142;47.990;7.846;2023-12-22T09:46:48;7.80;99.90
30336;DHT22;17142;47.990;7.846;2023-12-22T09:49:17;7.80;99.90
30336;DHT22;17142;47.990;7.846;2023-12-22T09:51:44;7.90;99.90
30336;DHT22;17142;47.990;7.846;2023-12-22T09:54:10;8.00;99.90
30336;DHT22;17142;47.990;7.846;2023-12-22T09:56:37;8.00;99.90
30336;DHT22;17142;47.990;7.846;2023-12-22T09:59:11;8.00;99.90
30336;DHT22;17142;47.990;7.846;2023-12-22T10:01:47;8.00;99.90
30336;DHT22;17142;47.990;7.846;2023-12-22T10:04:14;8.00;99.90
30336;DHT22;17142;47.990;7.846;2023-12-22T10:06:41;8.10;99.90
30336;DHT22;17142;47.990;7.846;2023-12-22T10:09:07;8.10;99.90
30336;DHT22;17142;47.990;7.846;2023-12-22T10:11:35;8.10;99.90
30336;DHT22;17142;47.990;7.846;2023-12-22T10:14:02;8.00;99.90
30336;DHT22;17142;47.990;7.846;2023-12-22T10:16:29;8.00;99.90
30336;DHT22;17142;47.990;7.846;2023-12-22T10:18:55;8.10;99.90
30336;DHT22;17142;47.990;7.846;2023-12-22T10:21:20;8.00;99.90
30336;DHT22;17142;47.990;7.846;2023-12-22T10:23:46;8.10;99.90
30336;DHT22;17142;47.990;7.846;2023-12-22T10:26:12;8.10;99.90
30336;DHT22;17142;47.990;7.846;2023-12-22T10:28:38;8.20;99.90
30336;DHT22;17142;47.990;7.846;2023-12-22T10:31:03;8.20;99.90
30336;DHT22;17142;47.990;7.846;2023-12-22T10:33:35;8.20;99.90
30336;DHT22;17142;47.990;7.846;2023-12-22T10:36:00;8.20;99.90
30336;DHT22;17142;47.990;7.846;2023-12-22T10:38:32;8.20;99.90
30336;DHT22;17142;47.990;7.846;2023-12-22T10:41:00;8.20;99.90
30336;DHT22;17142;47.990;7.846;2023-12-22T10:43:26;8.30;99.90
30336;DHT22;17142;47.990;7.846;2023-12-22T10:45:55;8.30;99.90
30336;DHT22;17142;47.990;7.846;2023-12-22T10:48:22;8.30;99.90
30336;DHT22;17142;47.990;7.846;2023-12-22T10:50:48;8.20;99.90
30336;DHT22;17142;47.990;7.846;2023-12-22T10:53:14;8.10;99.90
30336;DHT22;17142;47.990;7.846;2023-12-22T10:55:40;8.10;99.90
30336;DHT22;17142;47.990;7.846;2023-12-22T10:58:06;8.10;99.90
30336;DHT22;17142;47.990;7.846;2023-12-22T11:00:37;8.10;99.90
30336;DHT22;17142;47.990;7.846;2023-12-22T11:03:08;8.10;99.90
30336;DHT22;17142;47.990;7.846;2023-12-22T11:05:36;8.10;99.90
30336;DHT22;17142;47.990;7.846;2023-12-22T11:08:03;8.10;99.90
30336;DHT22;17142;47.990;7.846;2023-12-22T11:10:31;8.10;99.90
30336;DHT22;17142;47.990;7.846;2023-12-22T11:12:57;8.10;99.90
30336;DHT22;17142;47.990;7.846;2023-12-22T11:15:24;8.10;99.90
30336;DHT22;17142;47.990;7.846;2023-12-22T11:17:52;8.20;99.90
30336;DHT22;17142;47.990;7.846;2023-12-22T11:20:24;8.20;99.90
30336;DHT22;17142;47.990;7.846;2023-12-22T11:22:51;8.20;99.90
30336;DHT22;17142;47.990;7.846;2023-12-22T11:25:18;8.20;99.90
30336;DHT22;17142;47.990;7.846;2023-12-22T11:27:46;8.30;99.90
30336;DHT22;17142;47.990;7.846;2023-12-22T11:30:14;8.30;99.90
30336;DHT22;17142;47.990;7.846;2023-12-22T11:32:40;8.30;99.90
30336;DHT22;17142;47.990;7.846;2023-12-22T11:35:07;8.30;99.90
30336;DHT22;17142;47.990;7.846;2023-12-22T11:37:38;8.30;99.90
30336;DHT22;17142;47.990;7.846;2023-12-22T11:40:04;8.30;99.90
30336;DHT22;17142;47.990;7.846;2023-12-22T11:42:40;8.30;99.90
30336;DHT22;17142;47.990;7.846;2023-12-22T11:45:10;8.40;99.90
30336;DHT22;17142;47.990;7.846;2023-12-22T11:47:37;8.40;99.90
30336;DHT22;17142;47.990;7.846;2023-12-22T11:50:03;8.40;99.90
30336;DHT22;17142;47.990;7.846;2023-12-22T11:52:29;8.40;99.90
30336;DHT22;17142;47.990;7.846;2023-12-22T11:54:55;8.40;99.90
30336;DHT22;17142;47.990;7.846;2023-12-22T11:59:56;8.40;99.90
30336;DHT22;17142;47.990;7.846;2023-12-22T12:02:23;8.40;99.90
30336;DHT22;17142;47.990;7.846;2023-12-22T12:04:50;8.50;99.90
30336;DHT22;17142;47.990;7.846;2023-12-22T12:07:44;8.50;99.90
30336;DHT22;17142;47.990;7.846;2023-12-22T12:13:08;8.60;99.90
30336;DHT22;17142;47.990;7.846;2023-12-22T12:15:35;8.60;99.90
30336;DHT22;17142;47.990;7.846;2023-12-22T12:18:03;8.60;99.90
30336;DHT22;17142;47.990;7.846;2023-12-22T12:20:32;8.60;99.90
30336;DHT22;17142;47.990;7.846;2023-12-22T12:22:58;8.60;99.90
30336;DHT22;17142;47.990;7.846;2023-12-22T12:25:27;8.70;99.90
30336;DHT22;17142;47.990;7.846;2023-12-22T12:30:29;8.70;99.90
30336;DHT22;17142;47.990;7.846;2023-12-22T12:33:19;8.70;99.90
30336;DHT22;17142;47.990;7.846;2023-12-22T12:35:46;8.70;99.90
30336;DHT22;17142;47.990;7.846;2023-12-22T12:38:12;8.80;99.90
30336;DHT22;17142;47.990;7.846;2023-12-22T12:40:42;8.80;99.90
30336;DHT22;17142;47.990;7.846;2023-12-22T12:43:10;8.90;99.90
30336;DHT22;17142;47.990;7.846;2023-12-22T12:45:36;8.90;99.90
30336;DHT22;17142;47.990;7.846;2023-12-22T12:48:03;8.90;99.90
30336;DHT22;17142;47.990;7.846;2023-12-22T12:50:29;9.00;99.90
30336;DHT22;17142;47.990;7.846;2023-12-22T12:52:56;9.00;99.90
30336;DHT22;17142;47.990;7.846;2023-12-22T12:55:23;9.00;99.90
30336;DHT22;17142;47.990;7.846;2023-12-22T12:57:50;9.00;99.90
30336;DHT22;17142;47.990;7.846;2023-12-22T13:00:38;9.00;99.90
30336;DHT22;17142;47.990;7.846;2023-12-22T13:03:05;9.00;99.90
30336;DHT22;17142;47.990;7.846;2023-12-22T13:05:34;9.00;99.90
30336;DHT22;17142;47.990;7.846;2023-12-22T13:08:12;9.00;99.90
30336;DHT22;17142;47.990;7.846;2023-12-22T13:10:39;9.00;99.90
30336;DHT22;17142;47.990;7.846;2023-12-22T13:13:05;9.00;99.90
30336;DHT22;17142;47.990;7.846;2023-12-22T13:15:33;9.00;99.90
30336;DHT22;17142;47.990;7.846;2023-12-22T13:17:59;9.00;99.90
30336;DHT22;17142;47.990;7.846;2023-12-22T13:20:25;8.90;99.90
30336;DHT22;17142;47.990;7.846;2023-12-22T13:22:53;9.00;99.90
30336;DHT22;17142;47.990;7.846;2023-12-22T13:25:19;9.00;99.90
30336;DHT22;17142;47.990;7.846;2023-12-22T13:27:48;9.00;99.90
30336;DHT22;17142;47.990;7.846;2023-12-22T13:33:01;9.00;99.90
30336;DHT22;17142;47.990;7.846;2023-12-22T13:35:28;9.00;99.90
30336;DHT22;17142;47.990;7.846;2023-12-22T13:37:54;9.00;99.90
30336;DHT22;17142;47.990;7.846;2023-12-22T13:40:21;9.00;99.90
30336;DHT22;17142;47.990;7.846;2023-12-22T13:42:58;9.00;99.90
30336;DHT22;17142;47.990;7.846;2023-12-22T13:45:27;9.00;99.90
30336;DHT22;17142;47.990;7.846;2023-12-22T13:47:53;9.00;99.90
30336;DHT22;17142;47.990;7.846;2023-12-22T13:50:19;9.00;99.90
30336;DHT22;17142;47.990;7.846;2023-12-22T13:52:48;8.90;99.90
30336;DHT22;17142;47.990;7.846;2023-12-22T13:55:17;8.90;99.90
30336;DHT22;17142;47.990;7.846;2023-12-22T13:57:43;8.90;99.90
30336;DHT22;17142;47.990;7.846;2023-12-22T14:02:45;8.80;99.90
30336;DHT22;17142;47.990;7.846;2023-12-22T14:05:11;8.80;99.90
30336;DHT22;17142;47.990;7.846;2023-12-22T14:07:37;8.80;99.90
30336;DHT22;17142;47.990;7.846;2023-12-22T14:10:06;8.80;99.90
30336;DHT22;17142;47.990;7.846;2023-12-22T14:12:32;8.80;99.90
30336;DHT22;17142;47.990;7.846;2023-12-22T14:14:58;8.80;99.90
30336;DHT22;17142;47.990;7.846;2023-12-22T14:17:24;8.90;99.90
30336;DHT22;17142;47.990;7.846;2023-12-22T14:19:50;8.90;99.90
30336;DHT22;17142;47.990;7.846;2023-12-22T14:22:15;8.90;99.90
30336;DHT22;17142;47.990;7.846;2023-12-22T14:24:42;8.90;99.90
30336;DHT22;17142;47.990;7.846;2023-12-22T14:27:08;8.90;99.90
30336;DHT22;17142;47.990;7.846;2023-12-22T14:29:37;8.90;99.90
30336;DHT22;17142;47.990;7.846;2023-12-22T14:32:06;8.90;99.90
30336;DHT22;17142;47.990;7.846;2023-12-22T14:34:34;8.90;99.90
30336;DHT22;17142;47.990;7.846;2023-12-22T14:36:59;8.90;99.90
30336;DHT22;17142;47.990;7.846;2023-12-22T14:39:26;8.90;99.90
30336;DHT22;17142;47.990;7.846;2023-12-22T14:41:52;8.90;99.90
30336;DHT22;17142;47.990;7.846;2023-12-22T14:44:17;8.90;99.90
30336;DHT22;17142;47.990;7.846;2023-12-22T14:46:43;8.90;99.90
30336;DHT22;17142;47.990;7.846;2023-12-22T14:49:10;8.90;99.90
30336;DHT22;17142;47.990;7.846;2023-12-22T14:51:39;8.90;99.90
30336;DHT22;17142;47.990;7.846;2023-12-22T14:54:06;8.90;99.90
30336;DHT22;17142;47.990;7.846;2023-12-22T14:56:32;8.90;99.90
30336;DHT22;17142;47.990;7.846;2023-12-22T14:58:58;8.90;99.90
30336;DHT22;17142;47.990;7.846;2023-12-22T15:01:26;9.00;99.90
30336;DHT22;17142;47.990;7.846;2023-12-22T15:03:54;8.90;99.90
30336;DHT22;17142;47.990;7.846;2023-12-22T15:06:22;8.90;99.90
30336;DHT22;17142;47.990;7.846;2023-12-22T15:08:48;8.90;99.90
30336;DHT22;17142;47.990;7.846;2023-12-22T15:11:13;8.90;99.90
30336;DHT22;17142;47.990;7.846;2023-12-22T15:13:39;8.90;99.90
30336;DHT22;17142;47.990;7.846;2023-12-22T15:16:05;8.90;99.90
30336;DHT22;17142;47.990;7.846;2023-12-22T15:18:31;8.90;99.90
30336;DHT22;17142;47.990;7.846;2023-12-22T15:20:56;9.00;99.90
30336;DHT22;17142;47.990;7.846;2023-12-22T15:23:22;9.00;99.90
30336;DHT22;17142;47.990;7.846;2023-12-22T15:25:47;9.00;99.90
30336;DHT22;17142;47.990;7.846;2023-12-22T15:28:13;9.00;99.90
30336;DHT22;17142;47.990;7.846;2023-12-22T15:30:42;8.90;99.90
30336;DHT22;17142;47.990;7.846;2023-12-22T15:33:12;8.90;99.90
30336;DHT22;17142;47.990;7.846;2023-12-22T15:35:38;9.00;99.90
30336;DHT22;17142;47.990;7.846;2023-12-22T15:38:04;8.90;99.90
30336;DHT22;17142;47.990;7.846;2023-12-22T15:40:32;8.90;99.90
30336;DHT22;17142;47.990;7.846;2023-12-22T15:42:57;8.90;99.90
30336;DHT22;17142;47.990;7.846;2023-12-22T15:45:23;8.90;99.90
30336;DHT22;17142;47.990;7.846;2023-12-22T15:47:49;8.90;99.90
30336;DHT22;17142;47.990;7.846;2023-12-22T15:50:14;8.90;99.90
30336;DHT22;17142;47.990;7.846;2023-12-22T15:52:41;9.00;99.90
30336;DHT22;17142;47.990;7.846;2023-12-22T15:55:07;8.90;99.90
30336;DHT22;17142;47.990;7.846;2023-12-22T15:57:34;8.90;99.90
30336;DHT22;17142;47.990;7.846;2023-12-22T16:00:00;8.90;99.90
30336;DHT22;17142;47.990;7.846;2023-12-22T16:02:25;8.90;99.90